Time;durP1;ratioP1;P1;durP2;ratioP2;P2;SDS_P1;SDS_P2;PMS_P1;PMS_P2;Temp;Humidity;BMP_temperature;BMP_pressure;BME280_temperature;BME280_humidity;BME280_pressure;Samples;Min_cycle;Max_cycle;Signal;HPM_P1;HPM_P2
2021/07/26 00:01:51;;;;;;;10.70;8.85;;;;;;;22.48;75.83;97491.69;5052772;28;20029;-84
2021/07/26 00:04:17;;;;;;;7.90;7.10;;;;;;;22.41;75.11;97482.06;5052507;28;20029;-86
2021/07/26 00:06:43;;;;;;;11.82;7.70;;;;;;;22.38;75.96;97482.84;5052647;28;20807;-85
2021/07/26 00:09:09;;;;;;;11.40;8.27;;;;;;;22.41;75.43;97489.63;5052931;28;20029;-85
2021/07/26 00:11:34;;;;;;;9.70;8.05;;;;;;;22.33;75.55;97483.19;5052251;28;20058;-86
2021/07/26 00:14:00;;;;;;;15.27;8.88;;;;;;;22.24;75.82;97482.69;5052736;28;20040;-84
2021/07/26 00:16:25;;;;;;;12.07;8.68;;;;;;;22.29;76.58;97481.56;5052811;28;20024;-84
2021/07/26 00:18:50;;;;;;;13.65;7.97;;;;;;;22.28;78.10;97480.75;5053245;28;20538;-84
2021/07/26 00:21:16;;;;;;;14.18;8.00;;;;;;;22.20;76.81;97469.94;5052163;28;20025;-85
2021/07/26 00:23:42;;;;;;;10.60;8.32;;;;;;;22.23;77.13;97475.53;5052638;28;20020;-86
2021/07/26 00:26:08;;;;;;;15.57;8.63;;;;;;;22.18;75.74;97467.50;5052286;28;20050;-86
2021/07/26 00:28:34;;;;;;;13.15;8.85;;;;;;;22.15;75.52;97476.63;5052315;28;20158;-89
2021/07/26 00:30:59;;;;;;;9.95;7.93;;;;;;;22.14;77.22;97475.06;5057330;28;20481;-84
2021/07/26 00:34:08;;;;;;;13.95;8.18;;;;;;;21.99;75.77;97481.63;5053264;28;20528;-84
2021/07/26 00:36:35;;;;;;;13.98;8.88;;;;;;;21.96;78.43;97485.19;5052594;28;20037;-87
2021/07/26 00:39:03;;;;;;;14.43;9.27;;;;;;;21.91;77.46;97482.75;5052629;28;20029;-84
2021/07/26 00:41:28;;;;;;;10.43;8.77;;;;;;;21.47;78.87;97479.00;5052247;28;20043;-85
2021/07/26 00:43:54;;;;;;;9.02;8.13;;;;;;;21.54;79.43;97473.53;5052574;28;20068;-85
2021/07/26 00:46:19;;;;;;;10.82;9.15;;;;;;;21.66;80.21;97493.56;5051902;28;20025;-84
2021/07/26 00:48:45;;;;;;;10.20;7.40;;;;;;;21.74;80.46;97491.69;5052068;28;20033;-87
2021/07/26 00:51:12;;;;;;;11.77;9.43;;;;;;;21.71;81.83;97489.63;5052490;28;20028;-87
2021/07/26 00:53:38;;;;;;;16.05;8.07;;;;;;;21.72;80.41;97491.25;5051674;28;20033;-85
2021/07/26 00:56:04;;;;;;;20.45;8.73;;;;;;;21.71;78.28;97498.78;5051859;28;20037;-83
2021/07/26 00:58:29;;;;;;;10.73;8.65;;;;;;;21.60;78.33;97485.94;5051410;28;20040;-84
2021/07/26 01:00:56;;;;;;;12.05;8.55;;;;;;;21.62;79.49;97489.13;5051836;28;20115;-85
2021/07/26 01:03:21;;;;;;;10.75;8.55;;;;;;;21.67;78.90;97492.41;5053185;28;20037;-84
2021/07/26 01:05:47;;;;;;;13.80;8.38;;;;;;;21.60;80.96;97494.28;5053057;28;20033;-85
2021/07/26 01:08:15;;;;;;;10.07;8.77;;;;;;;21.49;79.67;97496.16;5053375;28;20031;-85
2021/07/26 01:10:41;;;;;;;13.70;8.93;;;;;;;21.34;78.09;97493.16;5053111;28;20035;-85
2021/07/26 01:13:06;;;;;;;13.85;9.07;;;;;;;21.08;78.69;97495.91;5052098;28;20028;-86
2021/07/26 01:15:32;;;;;;;14.00;8.15;;;;;;;21.06;78.81;97509.41;5052192;28;20091;-85
2021/07/26 01:18:26;;;;;;;12.65;8.55;;;;;;;20.89;79.71;97498.84;5051666;28;20420;-85
2021/07/26 01:21:05;;;;;;;13.93;8.77;;;;;;;20.96;79.38;97498.13;5051222;28;20040;-84
2021/07/26 01:23:36;;;;;;;15.55;8.30;;;;;;;21.08;79.81;97490.34;5061751;28;20045;-85
2021/07/26 01:26:03;;;;;;;13.20;8.52;;;;;;;21.20;79.42;97497.72;5068403;28;20045;-85
2021/07/26 01:28:32;;;;;;;12.25;9.30;;;;;;;21.17;79.61;97495.69;5051819;28;20028;-86
2021/07/26 01:30:58;;;;;;;15.68;9.18;;;;;;;20.81;80.86;97499.88;5068559;28;20029;-86
2021/07/26 01:33:24;;;;;;;13.35;9.40;;;;;;;20.68;81.36;97510.41;5051498;28;20371;-85
2021/07/26 01:35:50;;;;;;;18.40;10.60;;;;;;;20.76;81.56;97516.91;5051453;28;20021;-85
2021/07/26 01:38:15;;;;;;;12.95;8.95;;;;;;;20.84;81.93;97518.59;5052041;28;20048;-86
2021/07/26 01:40:41;;;;;;;13.77;9.57;;;;;;;21.13;80.48;97504.00;5051654;28;20047;-86
2021/07/26 01:43:10;;;;;;;14.30;9.02;;;;;;;21.03;81.24;97509.34;5051712;28;20040;-86
2021/07/26 01:45:39;;;;;;;11.98;8.32;;;;;;;21.15;80.35;97514.72;5051574;28;20032;-87
2021/07/26 01:48:16;;;;;;;9.75;8.20;;;;;;;21.17;80.42;97521.56;5051866;28;20017;-86
2021/07/26 01:50:51;;;;;;;11.98;8.85;;;;;;;21.06;80.79;97512.19;5052095;28;20052;-86
2021/07/26 01:53:17;;;;;;;24.98;10.90;;;;;;;21.08;80.86;97520.97;5051102;28;20021;-85
2021/07/26 01:55:43;;;;;;;11.95;9.55;;;;;;;21.08;81.67;97518.19;5051159;28;20045;-85
2021/07/26 01:58:09;;;;;;;10.88;9.80;;;;;;;20.69;82.90;97512.03;5052037;28;20025;-85
2021/07/26 02:00:34;;;;;;;14.15;9.55;;;;;;;20.54;83.95;97514.94;5053009;28;20029;-86
2021/07/26 02:03:00;;;;;;;11.50;9.30;;;;;;;20.45;84.52;97508.81;5052888;28;20057;-87
2021/07/26 02:05:26;;;;;;;12.75;9.30;;;;;;;20.76;84.11;97516.91;5051445;28;20511;-88
2021/07/26 02:07:52;;;;;;;15.05;9.95;;;;;;;20.84;83.07;97513.03;5051174;28;20045;-86
2021/07/26 02:10:17;;;;;;;11.27;9.43;;;;;;;20.72;83.65;97510.47;5053646;28;20033;-90
2021/07/26 02:12:46;;;;;;;10.85;9.60;;;;;;;20.85;86.20;97520.22;5060074;28;20021;-87
2021/07/26 02:15:12;;;;;;;12.00;9.02;;;;;;;20.84;83.45;97518.59;5051593;28;20095;-87
2021/07/26 02:17:37;;;;;;;12.55;8.88;;;;;;;20.55;84.11;97505.44;5051951;28;20033;-86
2021/07/26 02:20:04;;;;;;;12.70;9.00;;;;;;;20.72;84.29;97527.16;5053024;28;20018;-85
2021/07/26 02:22:30;;;;;;;10.40;8.95;;;;;;;20.79;86.05;97513.38;5056033;28;20489;-85
2021/07/26 02:24:56;;;;;;;10.35;8.68;;;;;;;20.76;84.42;97522.47;5051671;28;20110;-86
2021/07/26 02:27:21;;;;;;;14.40;9.43;;;;;;;20.83;83.46;97534.47;5051584;28;20052;-85
2021/07/26 02:29:47;;;;;;;12.07;8.50;;;;;;;20.75;82.74;97516.09;5051760;28;20025;-88
2021/07/26 02:32:12;;;;;;;10.77;9.63;;;;;;;20.78;82.26;97520.09;5051501;28;20028;-86
2021/07/26 02:34:37;;;;;;;14.15;8.85;;;;;;;20.75;82.39;97521.66;5050599;28;20129;-85
2021/07/26 02:37:03;;;;;;;15.02;10.02;;;;;;;20.75;82.10;97520.84;5050992;28;20025;-83
2021/07/26 02:39:28;;;;;;;10.60;9.50;;;;;;;20.71;83.69;97514.41;5050300;28;20477;-85
2021/07/26 02:41:54;;;;;;;12.30;9.30;;;;;;;20.77;84.10;97540.72;5050735;28;20033;-85
2021/07/26 02:44:19;;;;;;;13.07;9.32;;;;;;;;;;5050680;28;20025;-86
2021/07/26 02:46:47;;;;;;;10.48;9.13;;;;;;;20.57;84.92;97526.13;5050653;28;20017;-85
2021/07/26 02:49:13;;;;;;;10.52;9.23;;;;;;;20.66;85.14;97539.75;5052398;28;20078;-87
2021/07/26 02:51:38;;;;;;;18.45;9.80;;;;;;;20.33;84.93;97539.56;5051374;28;20032;-88
2021/07/26 02:54:04;;;;;;;13.70;9.93;;;;;;;20.51;84.79;97527.59;5050240;28;20053;-86
2021/07/26 02:56:29;;;;;;;12.27;9.77;;;;;;;20.66;83.51;97529.44;5050885;28;20083;-87
2021/07/26 02:58:54;;;;;;;12.43;9.35;;;;;;;20.42;84.14;97540.13;5051324;28;20029;-85
2021/07/26 03:01:20;;;;;;;14.10;9.02;;;;;;;20.39;85.47;97532.53;5050827;28;20021;-86
2021/07/26 03:03:45;;;;;;;14.13;10.38;;;;;;;20.42;84.05;97540.13;5051689;28;20031;-86
2021/07/26 03:06:14;;;;;;;12.75;9.20;;;;;;;20.00;86.13;97543.69;5051270;28;20132;-87
2021/07/26 03:08:40;;;;;;;11.35;9.18;;;;;;;20.13;86.75;97550.69;5054631;28;20017;-85
2021/07/26 03:11:10;;;;;;;13.07;9.02;;;;;;;20.20;86.59;97550.78;5056087;28;20021;-88
2021/07/26 03:13:38;;;;;;;14.77;10.55;;;;;;;20.10;86.08;97550.59;5054350;28;20040;-85
2021/07/26 03:16:09;;;;;;;15.90;10.10;;;;;;;20.28;87.59;97552.59;5054657;28;20033;-87
2021/07/26 03:18:36;;;;;;;20.95;10.35;;;;;;;20.26;85.62;97552.16;5054479;28;20106;-89
2021/07/26 03:21:02;;;;;;;20.92;9.85;;;;;;;20.00;86.54;97552.00;5054692;28;20028;-85
2021/07/26 03:23:27;;;;;;;13.10;9.25;;;;;;;20.19;87.94;97560.31;5054209;28;20111;-86
2021/07/26 03:25:53;;;;;;;10.48;9.45;;;;;;;20.21;87.06;97566.31;5054216;28;20126;-87
2021/07/26 03:28:18;;;;;;;11.52;10.30;;;;;;;20.25;90.42;97556.06;5054618;28;20546;-85
2021/07/26 03:30:43;;;;;;;13.05;9.30;;;;;;;20.21;91.14;97546.84;5054807;28;20024;-87
2021/07/26 03:33:09;;;;;;;12.88;9.32;;;;;;;20.34;91.00;97566.16;5054749;28;20031;-86
2021/07/26 03:35:35;;;;;;;9.50;8.52;;;;;;;20.24;87.26;97556.41;5055401;28;20048;-87
2021/07/26 03:38:01;;;;;;;13.68;9.77;;;;;;;20.12;86.18;97553.81;5050511;28;20501;-87
2021/07/26 03:40:28;;;;;;;10.82;9.73;;;;;;;20.10;85.99;97545.06;5051147;28;20017;-88
2021/07/26 03:42:53;;;;;;;16.48;10.27;;;;;;;19.84;87.30;97562.38;5034431;28;20124;-86
2021/07/26 03:45:20;;;;;;;12.35;9.27;;;;;;;19.99;86.83;97561.50;5054435;28;20109;-88
2021/07/26 03:47:47;;;;;;;13.55;8.45;;;;;;;19.94;86.43;97552.66;5054306;28;20143;-85
2021/07/26 03:50:14;;;;;;;15.27;9.20;;;;;;;20.04;87.69;97557.63;5054543;28;20056;-87
2021/07/26 03:52:51;;;;;;;13.25;9.38;;;;;;;20.06;88.88;97556.09;5054267;28;20066;-86
2021/07/26 03:55:21;;;;;;;11.63;9.85;;;;;;;19.98;90.13;97543.25;5062977;28;20064;-87
2021/07/26 03:57:48;;;;;;;10.60;9.30;;;;;;;20.08;88.04;97559.28;5065713;28;20078;-87
2021/07/26 04:00:16;;;;;;;15.10;9.50;;;;;;;19.98;88.98;97542.44;5053988;28;20078;-86
2021/07/26 04:02:43;;;;;;;13.82;9.50;;;;;;;20.03;88.05;97562.38;5070290;28;20036;-88
2021/07/26 04:05:16;;;;;;;11.60;8.77;;;;;;;19.94;87.16;97559.03;5054080;28;20025;-86
2021/07/26 04:07:45;;;;;;;14.93;9.60;;;;;;;20.09;88.44;97554.53;5070236;28;20477;-87
2021/07/26 04:10:11;;;;;;;11.95;10.20;;;;;;;19.97;86.58;97551.94;5055867;28;20027;-87
2021/07/26 04:12:37;;;;;;;13.57;9.18;;;;;;;19.88;87.47;97549.38;5054148;28;20021;-86
2021/07/26 04:15:09;;;;;;;15.48;9.77;;;;;;;20.12;86.98;97560.19;5053676;28;20025;-86
2021/07/26 04:17:35;;;;;;;12.43;9.18;;;;;;;20.08;86.00;97547.41;5070205;28;20029;-87
2021/07/26 04:20:02;;;;;;;14.80;10.05;;;;;;;20.22;86.03;97567.91;5053912;28;20025;-86
2021/07/26 04:22:27;;;;;;;10.52;9.32;;;;;;;20.04;86.29;97541.78;5053765;28;20037;-87
2021/07/26 04:24:53;;;;;;;10.05;8.98;;;;;;;20.14;86.37;97563.38;5053696;28;20074;-87
2021/07/26 04:27:19;;;;;;;13.48;8.82;;;;;;;20.43;86.30;97563.94;5053814;28;20492;-86
2021/07/26 04:29:44;;;;;;;12.23;10.55;;;;;;;20.39;85.92;97577.81;5060352;28;20025;-86
2021/07/26 04:32:10;;;;;;;15.05;9.98;;;;;;;20.38;90.02;97572.59;5061462;28;20032;-87
2021/07/26 04:34:36;;;;;;;11.02;9.45;;;;;;;20.43;86.46;97570.31;5039840;28;20104;-85
2021/07/26 04:37:02;;;;;;;14.65;10.02;;;;;;;20.42;87.89;97567.91;5053143;28;20086;-85
2021/07/26 04:39:27;;;;;;;11.88;9.98;;;;;;;20.57;85.33;97575.34;5052845;28;20441;-87
2021/07/26 04:41:52;;;;;;;17.17;10.27;;;;;;;20.39;87.74;97575.03;5053029;28;20025;-87
2021/07/26 04:44:18;;;;;;;13.32;9.88;;;;;;;20.49;88.84;97579.13;5050799;28;20024;-86
2021/07/26 04:46:43;;;;;;;16.77;10.13;;;;;;;20.48;86.48;97588.66;5051883;28;20120;-87
2021/07/26 04:49:09;;;;;;;19.95;10.32;;;;;;;20.63;86.85;97601.66;5052340;28;20029;-85
2021/07/26 04:51:34;;;;;;;14.05;10.65;;;;;;;20.68;84.53;97598.56;5052993;28;20544;-85
2021/07/26 04:53:59;;;;;;;17.40;10.07;;;;;;;20.70;84.63;97593.44;5052246;28;20053;-85
2021/07/26 04:56:25;;;;;;;12.63;9.15;;;;;;;20.88;83.99;97599.31;5050283;28;20115;-79
2021/07/26 04:58:50;;;;;;;18.17;10.40;;;;;;;21.00;85.42;97605.47;5050779;28;20473;-78
2021/07/26 05:01:16;;;;;;;14.00;10.02;;;;;;;21.12;85.21;97610.06;5053475;28;20028;-78
2021/07/26 05:03:41;;;;;;;13.05;9.13;;;;;;;21.14;82.67;97613.28;5049267;28;20483;-78
2021/07/26 05:06:07;;;;;;;15.15;9.60;;;;;;;21.20;83.59;97612.63;5048654;28;20033;-78
2021/07/26 05:08:32;;;;;;;12.10;9.57;;;;;;;21.22;81.94;97601.09;5045383;28;20033;-78
2021/07/26 05:10:58;;;;;;;15.20;11.00;;;;;;;21.28;81.34;97614.31;5048291;28;20486;-78
2021/07/26 05:13:23;;;;;;;16.08;11.73;;;;;;;21.42;81.32;97616.53;5051279;28;20481;-79
2021/07/26 05:15:49;;;;;;;11.32;9.80;;;;;;;21.56;81.67;97625.06;5061604;28;20033;-78
2021/07/26 05:18:14;;;;;;;12.98;10.00;;;;;;;21.67;81.50;97620.47;5049776;28;20029;-80
2021/07/26 05:20:39;;;;;;;14.38;9.73;;;;;;;21.80;81.37;97623.84;5048686;28;20025;-78
2021/07/26 05:23:09;;;;;;;12.85;10.02;;;;;;;21.83;79.75;97628.66;5048429;28;20081;-79
2021/07/26 05:31:32;;;;;;;14.48;10.77;;;;;;;22.06;79.47;97629.38;5162691;22;20528;-81
2021/07/26 05:33:57;;;;;;;14.30;9.57;;;;;;;22.21;79.67;97641.53;5048322;28;20033;-83
2021/07/26 05:36:25;;;;;;;14.43;9.48;;;;;;;22.20;78.40;97632.38;5048520;28;20021;-80
2021/07/26 05:38:51;;;;;;;11.43;9.43;;;;;;;22.20;75.36;97640.72;5048099;28;20033;-81
2021/07/26 05:41:20;;;;;;;16.92;10.75;;;;;;;22.52;73.96;97640.31;5047756;28;20031;-79
2021/07/26 05:44:15;;;;;;;14.57;10.38;;;;;;;22.19;74.26;97632.72;5048959;28;20051;-80
2021/07/26 05:46:41;;;;;;;16.52;10.88;;;;;;;22.30;75.72;97656.75;5050910;28;20035;-86
2021/07/26 05:49:06;;;;;;;12.63;10.65;;;;;;;21.98;75.77;97651.97;5051795;28;20021;-85
2021/07/26 05:51:31;;;;;;;13.98;9.73;;;;;;;21.91;76.13;97652.66;5053092;28;20029;-84
2021/07/26 05:53:57;;;;;;;13.63;9.82;;;;;;;22.06;76.16;97646.09;5051001;28;20029;-86
2021/07/26 05:56:22;;;;;;;14.90;8.77;;;;;;;22.18;75.96;97639.47;5051033;28;20025;-85
2021/07/26 05:59:27;;;;;;;12.57;9.65;;;;;;;22.37;75.71;97642.91;5052806;28;20533;-86
2021/07/26 06:01:54;;;;;;;15.23;10.45;;;;;;;22.45;77.11;97645.78;5052733;28;20123;-85
2021/07/26 06:04:21;;;;;;;13.18;9.93;;;;;;;22.53;76.81;97639.91;5050639;28;20025;-85
2021/07/26 06:06:49;;;;;;;24.48;16.05;;;;;;;22.55;73.94;97645.13;5055268;28;20071;-83
2021/07/26 06:09:15;;;;;;;15.45;10.15;;;;;;;22.56;76.04;97653.09;5046429;28;20029;-86
2021/07/26 06:11:42;;;;;;;13.75;9.93;;;;;;;22.56;75.87;97647.50;5047595;28;20039;-84
2021/07/26 06:14:08;;;;;;;38.22;26.55;;;;;;;22.84;73.73;97663.78;5050066;28;20120;-83
2021/07/26 06:16:34;;;;;;;14.43;10.73;;;;;;;22.94;75.46;97674.25;5048963;28;20115;-83
2021/07/26 06:19:01;;;;;;;13.52;10.05;;;;;;;23.11;75.39;97675.63;5050071;28;20075;-83
2021/07/26 06:21:27;;;;;;;14.90;10.15;;;;;;;23.26;71.36;97675.34;5056265;28;20021;-86
2021/07/26 06:23:53;;;;;;;22.67;10.82;;;;;;;23.35;74.19;97669.44;5054034;28;20029;-86
2021/07/26 06:26:18;;;;;;;16.48;10.90;;;;;;;23.31;73.21;97672.19;5052019;28;20028;-83
2021/07/26 06:28:43;;;;;;;13.80;10.43;;;;;;;23.72;70.56;97686.13;5047162;28;20021;-78
2021/07/26 06:31:10;;;;;;;14.82;11.73;;;;;;;23.53;71.52;97689.16;5050339;28;20048;-86
2021/07/26 06:33:36;;;;;;;16.42;10.45;;;;;;;23.49;73.14;97700.31;5042632;28;20044;-80
2021/07/26 06:36:03;;;;;;;17.08;12.40;;;;;;;23.42;69.96;97697.47;5046951;28;20448;-81
2021/07/26 06:38:28;;;;;;;18.80;12.98;;;;;;;23.14;69.80;97699.97;5044738;28;21632;-79
2021/07/26 06:40:54;;;;;;;14.40;11.00;;;;;;;23.16;70.25;97709.56;5046129;28;20025;-78
2021/07/26 06:43:19;;;;;;;15.50;11.07;;;;;;;23.34;70.52;97707.72;5050267;28;20025;-81
2021/07/26 06:45:45;;;;;;;17.77;10.85;;;;;;;23.55;69.27;97709.16;5052337;28;20543;-80
2021/07/26 06:48:10;;;;;;;19.27;11.55;;;;;;;23.56;69.94;97711.53;5059085;28;20027;-78
2021/07/26 06:50:37;;;;;;;14.32;9.80;;;;;;;23.79;70.95;97709.34;5061041;28;20028;-78
2021/07/26 06:53:03;;;;;;;13.77;11.07;;;;;;;23.65;68.40;97717.59;5051811;28;20102;-79
2021/07/26 06:55:28;;;;;;;13.30;9.60;;;;;;;23.57;68.91;97717.94;5052695;28;20022;-82
2021/07/26 06:57:53;;;;;;;15.30;11.57;;;;;;;23.98;69.27;97728.63;5053059;28;20460;-84
2021/07/26 07:00:19;;;;;;;14.77;10.30;;;;;;;23.82;69.32;97721.72;5052949;28;20021;-84
2021/07/26 07:02:46;;;;;;;14.00;9.75;;;;;;;23.81;70.29;97714.53;5052812;28;20505;-83
2021/07/26 07:05:12;;;;;;;17.05;9.57;;;;;;;23.95;69.01;97717.44;5052358;28;20056;-80
2021/07/26 07:07:37;;;;;;;17.83;10.18;;;;;;;24.02;70.12;97727.84;5052795;28;20027;-79
2021/07/26 07:10:03;;;;;;;13.55;10.13;;;;;;;24.18;68.78;97726.41;5051140;28;20494;-81
2021/07/26 07:12:28;;;;;;;12.15;9.35;;;;;;;23.96;69.38;97733.00;5053084;28;20032;-81
2021/07/26 07:14:54;;;;;;;14.20;9.45;;;;;;;24.09;69.23;97730.72;5053054;28;20071;-81
2021/07/26 07:17:20;;;;;;;16.75;9.88;;;;;;;24.06;68.51;97734.28;5050945;28;20078;-83
2021/07/26 07:19:48;;;;;;;14.77;8.57;;;;;;;24.08;68.75;97741.06;5047964;28;20120;-80
2021/07/26 07:22:18;;;;;;;14.98;8.32;;;;;;;24.19;68.91;97750.34;5050910;28;20450;-81
2021/07/26 07:24:43;;;;;;;13.63;7.93;;;;;;;24.33;67.84;97739.28;5049188;28;20471;-86
2021/07/26 07:27:09;;;;;;;13.63;8.77;;;;;;;24.23;67.94;97731.63;5052314;28;20104;-84
2021/07/26 07:29:34;;;;;;;10.60;8.57;;;;;;;24.09;67.38;97723.09;5034227;28;20033;-84
2021/07/26 07:32:02;;;;;;;11.05;8.55;;;;;;;24.32;68.96;97720.88;5051885;28;20025;-84
2021/07/26 07:34:27;;;;;;;12.25;10.43;;;;;;;24.42;68.90;97720.13;5052120;28;20772;-81
2021/07/26 07:36:53;;;;;;;16.27;10.88;;;;;;;24.44;65.30;97726.13;5050634;28;20037;-81
2021/07/26 07:39:21;;;;;;;13.57;8.18;;;;;;;24.39;66.30;97742.50;5050677;28;20220;-78
2021/07/26 07:41:46;;;;;;;20.65;9.25;;;;;;;24.41;65.63;97735.31;5047778;28;20121;-78
2021/07/26 07:44:12;;;;;;;13.20;8.35;;;;;;;24.52;65.48;97719.41;5050658;28;20448;-82
2021/07/26 07:46:37;;;;;;;13.05;8.40;;;;;;;24.50;67.05;97718.97;5049605;28;20005;-81
2021/07/26 07:49:05;;;;;;;11.73;9.13;;;;;;;24.94;64.84;97734.75;5050985;28;20453;-80
2021/07/26 07:51:30;;;;;;;13.65;8.48;;;;;;;24.93;65.94;97719.97;5051859;28;20914;-79
2021/07/26 07:53:58;;;;;;;10.27;8.48;;;;;;;24.88;63.61;97716.75;5049877;28;20010;-79
2021/07/26 07:56:24;;;;;;;14.27;7.85;;;;;;;24.91;62.41;97724.34;5051138;28;20033;-79
2021/07/26 07:58:52;;;;;;;11.13;8.10;;;;;;;25.11;65.53;97720.00;5048909;28;20469;-79
2021/07/26 08:01:18;;;;;;;20.88;9.52;;;;;;;25.46;64.01;97714.47;5049548;28;20065;-79
2021/07/26 08:03:43;;;;;;;14.23;9.15;;;;;;;25.59;61.18;97712.09;5048381;28;20025;-78
2021/07/26 08:06:08;;;;;;;15.10;8.75;;;;;;;25.41;61.21;97705.63;5049774;28;20355;-81
2021/07/26 08:08:34;;;;;;;18.95;9.38;;;;;;;25.66;62.23;97708.47;5048162;28;20108;-82
2021/07/26 08:10:59;;;;;;;16.17;10.77;;;;;;;25.98;60.91;97714.88;5048381;28;20020;-78
2021/07/26 08:13:25;;;;;;;11.98;9.00;;;;;;;26.03;60.04;97717.28;5049493;28;20079;-78
2021/07/26 08:15:53;;;;;;;16.30;9.10;;;;;;;26.14;59.84;97723.66;5047798;28;20074;-80
2021/07/26 08:18:22;;;;;;;12.00;8.68;;;;;;;26.10;58.18;97725.66;5048655;28;20017;-80
2021/07/26 08:20:48;;;;;;;16.75;10.02;;;;;;;26.28;61.21;97728.47;5049097;28;20037;-80
2021/07/26 08:23:14;;;;;;;15.00;8.48;;;;;;;26.43;60.26;97725.22;5050611;28;20033;-83
2021/07/26 08:25:40;;;;;;;15.27;9.25;;;;;;;26.79;57.67;97719.47;5049467;28;20021;-81
2021/07/26 08:28:06;;;;;;;12.65;8.82;;;;;;;26.90;56.36;97720.25;5049389;28;20508;-83
2021/07/26 08:30:33;;;;;;;18.77;9.25;;;;;;;26.87;55.43;97721.06;5047735;28;20037;-82
2021/07/26 08:32:59;;;;;;;24.92;9.00;;;;;;;26.92;55.60;97732.69;5049196;28;20087;-74
2021/07/26 08:35:25;;;;;;;17.33;9.48;;;;;;;26.99;53.53;97734.66;5040356;28;20025;-77
2021/07/26 08:37:51;;;;;;;21.33;10.00;;;;;;;26.95;53.22;97726.25;5049329;28;20102;-80
2021/07/26 08:40:19;;;;;;;20.35;8.23;;;;;;;26.99;53.70;97724.22;5048557;28;20058;-74
2021/07/26 08:42:45;;;;;;;10.23;7.60;;;;;;;27.13;53.25;97721.31;5048000;28;20428;-75
2021/07/26 08:45:10;;;;;;;12.48;8.00;;;;;;;27.40;53.17;97737.63;5047560;28;20029;-77
2021/07/26 08:47:41;;;;;;;13.98;8.23;;;;;;;27.67;52.80;97733.84;5048606;28;20048;-77
2021/07/26 08:50:08;;;;;;;12.57;7.78;;;;;;;27.76;52.74;97732.56;5049597;28;20090;-78
2021/07/26 08:52:42;;;;;;;11.10;7.45;;;;;;;27.71;51.71;97724.56;5035722;28;20010;-74
2021/07/26 08:55:12;;;;;;;12.95;6.60;;;;;;;27.95;49.10;97729.97;5049364;28;20470;-78
2021/07/26 08:57:41;;;;;;;16.58;8.02;;;;;;;27.98;48.76;97728.34;5048534;28;20059;-75
2021/07/26 09:00:08;;;;;;;9.75;6.88;;;;;;;28.19;49.07;97739.44;5047519;28;20016;-76
2021/07/26 09:02:33;;;;;;;15.63;8.15;;;;;;;28.21;48.81;97733.38;5047524;28;20396;-77
2021/07/26 09:04:59;;;;;;;13.63;7.78;;;;;;;28.31;49.78;97741.72;5048279;28;20124;-75
2021/07/26 09:07:28;;;;;;;9.30;6.88;;;;;;;28.66;49.96;97738.53;5055201;28;20025;-79
2021/07/26 09:09:54;;;;;;;9.95;7.38;;;;;;;28.74;50.36;97744.09;5051494;28;20044;-78
2021/07/26 09:12:31;;;;;;;10.32;6.82;;;;;;;28.74;49.98;97749.72;5048383;28;20474;-79
2021/07/26 09:14:56;;;;;;;8.77;5.93;;;;;;;28.75;49.18;97748.50;5046271;28;20033;-78
2021/07/26 09:17:22;;;;;;;8.90;6.43;;;;;;;28.43;49.13;97744.00;5047968;28;20033;-78
2021/07/26 09:20:00;;;;;;;11.38;7.82;;;;;;;28.44;49.26;97740.00;5046069;28;20642;-77
2021/07/26 09:22:33;;;;;;;8.25;5.95;;;;;;;28.52;50.48;97747.13;5048000;28;20025;-78
2021/07/26 09:25:22;;;;;;;10.65;7.05;;;;;;;28.46;50.08;97731.91;5045498;28;20032;-77
2021/07/26 09:28:00;;;;;;;8.52;5.78;;;;;;;28.48;49.94;97740.72;5046648;28;20465;-78
2021/07/26 09:30:47;;;;;;;10.77;6.07;;;;;;;28.57;49.40;97743.84;5045069;28;20071;-78
2021/07/26 09:33:39;;;;;;;10.98;6.78;;;;;;;28.40;50.35;97736.41;5047084;28;20048;-78
2021/07/26 09:36:18;;;;;;;9.52;5.93;;;;;;;28.34;50.98;97740.91;5037694;28;20052;-79
2021/07/26 09:39:02;;;;;;;10.50;6.30;;;;;;;28.45;51.34;97735.13;5046826;28;20020;-77
2021/07/26 09:41:45;;;;;;;8.32;5.40;;;;;;;28.57;51.31;97743.03;5048351;28;20734;-80
2021/07/26 09:44:14;;;;;;;9.57;5.95;;;;;;;28.68;51.67;97741.75;5046592;28;20065;-78
2021/07/26 09:46:43;;;;;;;11.02;5.40;;;;;;;28.73;51.27;97745.28;5045714;28;20098;-79
2021/07/26 09:49:09;;;;;;;12.32;6.90;;;;;;;28.62;50.18;97745.41;5047980;28;20470;-78
2021/07/26 09:51:34;;;;;;;7.50;5.47;;;;;;;28.59;50.38;97740.63;5046831;28;20029;-78
2021/07/26 09:54:00;;;;;;;10.30;5.18;;;;;;;28.69;51.10;97734.88;5047628;28;20028;-79
2021/07/26 09:56:29;;;;;;;6.65;5.07;;;;;;;28.88;50.71;97732.66;5046949;28;20075;-79
2021/07/26 09:58:55;;;;;;;11.52;5.93;;;;;;;28.96;49.81;97732.13;5045974;28;20562;-79
2021/07/26 10:01:22;;;;;;;7.50;5.20;;;;;;;28.88;50.23;97741.88;5047744;28;20067;-79
2021/07/26 10:03:51;;;;;;;10.07;4.93;;;;;;;28.94;49.41;97742.25;5046883;28;20029;-78
2021/07/26 10:06:18;;;;;;;10.35;5.50;;;;;;;29.00;49.16;97732.09;5047129;28;20036;-80
2021/07/26 10:08:44;;;;;;;8.80;5.70;;;;;;;29.40;48.83;97742.41;5048523;28;20043;-79
2021/07/26 10:11:10;;;;;;;11.30;4.80;;;;;;;29.31;48.47;97728.06;5048649;28;20082;-78
2021/07/26 10:13:39;;;;;;;9.50;5.60;;;;;;;29.48;49.62;97734.63;5047427;28;20029;-78
2021/07/26 10:16:05;;;;;;;12.00;5.22;;;;;;;29.13;48.35;97747.22;5047671;28;20029;-80
2021/07/26 10:18:30;;;;;;;10.18;5.85;;;;;;;29.15;49.57;97734.28;5052754;28;20021;-78
2021/07/26 10:21:04;;;;;;;8.02;5.00;;;;;;;29.32;50.33;97731.69;5052262;28;20021;-79
2021/07/26 10:23:55;;;;;;;10.75;4.82;;;;;;;29.52;48.96;97729.75;5050070;28;20116;-79
2021/07/26 10:26:31;;;;;;;7.15;4.35;;;;;;;29.58;48.68;97725.22;5046232;28;20056;-79
2021/07/26 10:28:57;;;;;;;9.48;4.38;;;;;;;29.53;47.95;97726.53;5049502;28;20477;-81
2021/07/26 10:31:36;;;;;;;8.52;4.15;;;;;;;29.60;47.45;97723.56;5050660;28;20057;-80
2021/07/26 10:34:08;;;;;;;6.60;3.83;;;;;;;29.65;48.63;97727.94;5050849;28;20490;-81
2021/07/26 10:36:40;;;;;;;7.63;4.30;;;;;;;29.57;45.94;97723.66;5050664;28;20021;-79
2021/07/26 10:39:18;;;;;;;12.70;5.13;;;;;;;29.55;46.56;97718.41;5052194;28;20029;-82
2021/07/26 10:41:43;;;;;;;14.25;4.57;;;;;;;29.52;46.62;97732.56;5050195;28;20037;-78
2021/07/26 10:44:29;;;;;;;11.05;4.78;;;;;;;29.34;46.06;97730.03;5052850;28;20413;-85
2021/07/26 10:46:58;;;;;;;8.70;3.83;;;;;;;29.24;45.58;97725.34;5049792;28;20013;-82
2021/07/26 10:49:51;;;;;;;10.52;4.43;;;;;;;29.41;45.91;97718.66;5051008;28;20426;-81
2021/07/26 10:52:22;;;;;;;15.02;3.78;;;;;;;29.38;45.40;97710.25;5050739;28;20386;-78
2021/07/26 10:54:49;;;;;;;10.27;4.15;;;;;;;29.43;45.30;97699.28;5049611;28;20159;-78
2021/07/26 10:57:44;;;;;;;9.48;4.22;;;;;;;29.49;45.51;97708.06;5051658;28;20549;-80
2021/07/26 11:00:19;;;;;;;11.27;3.85;;;;;;;29.63;45.74;97702.19;5052022;28;20029;-76
2021/07/26 11:02:47;;;;;;;8.27;3.08;;;;;;;29.82;45.39;97698.69;5048334;28;20045;-79
2021/07/26 11:05:28;;;;;;;13.93;4.82;;;;;;;30.02;44.88;97704.38;5051352;28;20037;-85
2021/07/26 11:08:12;;;;;;;12.90;4.57;;;;;;;29.99;44.22;97702.41;5052702;28;20539;-85
2021/07/26 11:10:48;;;;;;;12.45;3.75;;;;;;;29.90;44.70;97699.34;5050108;28;20025;-85
2021/07/26 11:13:14;;;;;;;18.13;5.32;;;;;;;29.99;43.61;97696.75;5051267;28;20061;-83
2021/07/26 11:15:50;;;;;;;10.40;4.25;;;;;;;30.00;44.42;97704.00;5052721;28;20031;-86
2021/07/26 11:18:29;;;;;;;9.35;3.88;;;;;;;29.97;44.25;97705.66;5052090;28;20557;-79
2021/07/26 11:21:05;;;;;;;14.25;4.57;;;;;;;30.01;43.91;97711.25;5053211;28;20037;-79
2021/07/26 11:23:53;;;;;;;9.43;4.43;;;;;;;30.05;43.66;97712.78;5052537;28;20025;-83
2021/07/26 11:26:29;;;;;;;16.05;4.22;;;;;;;29.87;43.85;97711.50;5053641;28;20954;-83
2021/07/26 11:29:00;;;;;;;15.63;4.00;;;;;;;29.83;44.56;97711.53;5058289;28;20028;-81
2021/07/26 11:31:27;;;;;;;13.20;4.38;;;;;;;29.82;44.64;97709.13;5053341;28;20092;-83
2021/07/26 11:33:52;;;;;;;10.32;4.07;;;;;;;29.80;44.98;97700.28;5050266;28;20466;-80
2021/07/26 11:36:19;;;;;;;14.93;4.50;;;;;;;29.91;44.59;97696.09;5049229;28;20016;-85